Time;durP1;ratioP1;P1;durP2;ratioP2;P2;SDS_P1;SDS_P2;PMS_P1;PMS_P2;Temp;Humidity;BMP_temperature;BMP_pressure;BME280_temperature;BME280_humidity;BME280_pressure;Samples;Min_cycle;Max_cycle;Signal;HPM_P1;HPM_P2
2023/06/19 00:01:50;;;;;;;;;;;;;;;21.32;70.04;95513.78;5071382;28;19970;-71
2023/06/19 00:04:16;;;;;;;;;;;;;;;21.38;69.60;95505.25;5068243;28;19954;-71
2023/06/19 00:06:42;;;;;;;;;;;;;;;21.35;70.11;95506.41;5070526;28;19932;-71
2023/06/19 00:09:09;;;;;;;;;;;;;;;21.25;70.16;95500.50;5068415;28;20391;-71
2023/06/19 00:11:37;;;;;;;;;;;;;;;21.20;70.52;95503.59;5071298;28;19959;-71
2023/06/19 00:14:03;;;;;;;;;;;;;;;21.21;70.90;95507.06;5069191;28;19966;-71
2023/06/19 00:16:30;;;;;;;;;;;;;;;21.23;70.94;95502.47;5070840;28;20385;-71
2023/06/19 00:18:56;;;;;;;;;;;;;;;21.29;70.58;95514.16;5063229;28;19933;-72
2023/06/19 00:21:24;;;;;;;;;;;;;;;21.24;70.67;95514.63;5071060;28;19978;-72
2023/06/19 00:23:50;;;;;;;;;;;;;;;21.14;71.36;95508.75;5067922;28;19925;-72
2023/06/19 00:26:17;;;;;;;;;;;;;;;21.28;70.48;95510.66;5070600;28;20387;-71
2023/06/19 00:28:45;;;;;;;;;;;;;;;21.35;69.80;95503.75;5064778;28;19932;-71
2023/06/19 00:31:13;;;;;;;;;;;;;;;21.39;69.57;95506.88;5070426;28;19924;-72
2023/06/19 00:33:39;;;;;;;;;;;;;;;21.44;69.19;95510.66;5070839;28;19928;-71
2023/06/19 00:36:09;;;;;;;;;;;;;;;21.45;69.46;95508.84;5068810;28;19932;-72
2023/06/19 00:38:35;;;;;;;;;;;;;;;21.19;71.17;95509.06;5070606;28;19925;-72
2023/06/19 00:41:02;;;;;;;;;;;;;;;21.00;72.84;95528.69;5065677;28;19924;-72
2023/06/19 00:43:28;;;;;;;;;;;;;;;20.89;73.79;95568.50;5059617;28;19928;-72
2023/06/19 00:45:56;;;;;;;;;;;;;;;20.80;72.36;95570.28;5066422;28;19929;-71
2023/06/19 00:48:23;;;;;;;;;;;;;;;20.83;72.71;95582.31;5069223;28;19925;-72
2023/06/19 00:50:49;;;;;;;;;;;;;;;20.88;71.35;95585.28;5068053;28;19933;-72
2023/06/19 00:53:16;;;;;;;;;;;;;;;21.24;68.47;95580.47;5065008;28;19956;-72
2023/06/19 00:55:43;;;;;;;;;;;;;;;21.43;68.13;95582.81;5068092;28;19925;-72
2023/06/19 00:58:10;;;;;;;;;;;;;;;21.43;69.80;95576.69;5065031;28;20528;-71
2023/06/19 01:00:36;;;;;;;;;;;;;;;21.46;70.57;95584.25;5070153;28;19928;-71
2023/06/19 01:03:04;;;;;;;;;;;;;;;21.42;71.44;95585.59;5066054;28;19924;-71
2023/06/19 01:05:31;;;;;;;;;;;;;;;21.39;72.71;95576.19;5068161;28;20058;-71
2023/06/19 01:08:00;;;;;;;;;;;;;;;21.29;74.14;95583.44;5069748;28;19928;-71
2023/06/19 01:10:28;;;;;;;;;;;;;;;21.27;74.41;95582.78;5070253;28;19925;-71
2023/06/19 01:12:57;;;;;;;;;;;;;;;21.19;75.37;95585.44;5069894;28;19925;-71
2023/06/19 01:15:23;;;;;;;;;;;;;;;21.20;76.37;95581.81;5071011;28;19970;-71
2023/06/19 01:17:50;;;;;;;;;;;;;;;21.12;76.70;95595.78;5069875;28;20019;-72
2023/06/19 01:20:18;;;;;;;;;;;;;;;21.13;77.23;95592.16;5070520;28;20559;-72
2023/06/19 01:22:46;;;;;;;;;;;;;;;21.05;78.62;95594.00;5070051;28;19929;-71
2023/06/19 01:25:13;;;;;;;;;;;;;;;20.90;79.92;95597.28;5070706;28;19924;-71
2023/06/19 01:27:41;;;;;;;;;;;;;;;20.78;81.34;95586.25;5066669;28;19929;-71
2023/06/19 01:30:08;;;;;;;;;;;;;;;20.77;81.96;95594.34;5068949;28;20422;-71
2023/06/19 01:32:39;;;;;;;;;;;;;;;20.71;83.22;95597.59;5070557;28;19937;-71
2023/06/19 01:35:08;;;;;;;;;;;;;;;20.67;84.02;95593.66;5073246;28;19932;-72
2023/06/19 01:37:35;;;;;;;;;;;;;;;20.69;84.10;95594.28;5073390;28;19928;-72
2023/06/19 01:40:05;;;;;;;;;;;;;;;20.74;83.64;95586.75;5068688;28;19925;-71
2023/06/19 01:42:32;;;;;;;;;;;;;;;20.79;83.53;95584.44;5073260;28;19932;-71
2023/06/19 01:44:58;;;;;;;;;;;;;;;20.80;83.68;95580.81;5073736;28;20458;-71
2023/06/19 01:47:26;;;;;;;;;;;;;;;20.84;83.70;95584.78;5071497;28;21276;-71
2023/06/19 01:49:52;;;;;;;;;;;;;;;20.74;84.44;95587.56;5078616;28;20395;-72
2023/06/19 01:52:19;;;;;;;;;;;;;;;20.91;83.57;95579.66;5068110;28;19929;-71
2023/06/19 01:54:45;;;;;;;;;;;;;;;20.90;83.21;95578.84;5070207;28;19929;-71
2023/06/19 01:57:13;;;;;;;;;;;;;;;20.94;83.39;95574.91;5071509;28;19924;-71
2023/06/19 01:59:39;;;;;;;;;;;;;;;20.98;83.73;95576.22;5071802;28;20336;-71
2023/06/19 02:02:06;;;;;;;;;;;;;;;20.99;83.31;95575.25;5063922;28;19979;-71
2023/06/19 02:04:33;;;;;;;;;;;;;;;21.07;83.10;95569.16;5067210;28;20011;-71
2023/06/19 02:06:59;;;;;;;;;;;;;;;21.15;82.97;95565.69;5066647;28;19935;-72
2023/06/19 02:09:26;;;;;;;;;;;;;;;21.10;83.76;95557.44;5073705;28;19947;-71
2023/06/19 02:11:52;;;;;;;;;;;;;;;21.06;85.08;95556.13;5075107;28;19932;-71
2023/06/19 02:14:19;;;;;;;;;;;;;;;20.98;85.90;95549.88;5067482;28;19982;-71
2023/06/19 02:16:46;;;;;;;;;;;;;;;20.97;85.48;95553.50;5067639;28;20294;-71
2023/06/19 02:19:12;;;;;;;;;;;;;;;20.77;87.45;95553.03;5070510;28;19925;-72
2023/06/19 02:21:38;;;;;;;;;;;;;;;20.70;89.73;95564.38;5072757;28;19934;-72
2023/06/19 02:24:05;;;;;;;;;;;;;;;20.77;89.26;95565.38;5065996;28;19928;-72
2023/06/19 02:26:31;;;;;;;;;;;;;;;20.80;90.37;95570.28;5072644;28;20015;-71
2023/06/19 02:28:58;;;;;;;;;;;;;;;20.79;91.36;95585.25;5073052;28;19969;-71
2023/06/19 02:31:25;;;;;;;;;;;;;;;20.82;95.14;95586.75;5071586;28;19932;-71
2023/06/19 02:33:51;;;;;;;;;;;;;;;20.75;96.37;95583.13;5074074;28;20401;-72
2023/06/19 02:36:19;;;;;;;;;;;;;;;20.86;94.44;95589.88;5073385;28;19928;-72
2023/06/19 02:38:45;;;;;;;;;;;;;;;20.82;97.96;95585.94;5065896;28;20453;-71
2023/06/19 02:41:12;;;;;;;;;;;;;;;20.56;100.00;95599.22;5066749;28;19929;-72
2023/06/19 02:43:38;;;;;;;;;;;;;;;20.30;100.00;95597.50;5070859;28;19932;-72
2023/06/19 02:46:04;;;;;;;;;;;;;;;20.46;100.00;95605.41;5072030;28;19929;-72
2023/06/19 02:48:32;;;;;;;;;;;;;;;20.47;100.00;95611.53;5063734;28;19925;-71
2023/06/19 02:50:58;;;;;;;;;;;;;;;20.41;100.00;95617.41;5066608;28;19982;-71
2023/06/19 02:53:25;;;;;;;;;;;;;;;20.48;100.00;95621.06;5066854;28;19928;-71
2023/06/19 02:55:51;;;;;;;;;;;;;;;20.52;99.71;95617.16;5061459;28;20228;-72
2023/06/19 02:58:17;;;;;;;;;;;;;;;20.59;98.94;95622.59;5067113;28;19931;-72
2023/06/19 03:00:43;;;;;;;;;;;;;;;20.50;100.00;95629.63;5064917;28;20349;-72
2023/06/19 03:03:10;;;;;;;;;;;;;;;20.48;100.00;95619.25;5068052;28;19928;-72
2023/06/19 03:05:37;;;;;;;;;;;;;;;20.38;100.00;95615.91;5062187;28;19928;-72
2023/06/19 03:08:03;;;;;;;;;;;;;;;20.35;100.00;95618.03;5067180;28;19928;-72
2023/06/19 03:10:30;;;;;;;;;;;;;;;20.29;100.00;95612.47;5069867;28;20394;-72
2023/06/19 03:12:58;;;;;;;;;;;;;;;20.27;100.00;95621.47;5065499;28;19933;-72
2023/06/19 03:15:24;;;;;;;;;;;;;;;20.18;100.00;95627.72;5070359;28;19981;-72
2023/06/19 03:17:50;;;;;;;;;;;;;;;20.18;100.00;95625.06;5066807;28;19932;-72
2023/06/19 03:20:17;;;;;;;;;;;;;;;20.11;100.00;95627.50;5076152;28;19970;-72
2023/06/19 03:22:44;;;;;;;;;;;;;;;20.06;100.00;95637.69;5068201;28;19932;-72
2023/06/19 03:25:11;;;;;;;;;;;;;;;19.98;100.00;95638.44;5069731;28;19924;-72
2023/06/19 03:27:37;;;;;;;;;;;;;;;20.05;100.00;95642.09;5071522;28;19950;-72
2023/06/19 03:30:05;;;;;;;;;;;;;;;19.87;100.00;95635.28;5069840;28;20008;-72
2023/06/19 03:32:32;;;;;;;;;;;;;;;19.86;100.00;95642.34;5072680;28;19924;-72
2023/06/19 03:34:58;;;;;;;;;;;;;;;19.48;100.00;95647.03;5063868;28;20402;-72
2023/06/19 03:37:24;;;;;;;;;;;;;;;19.46;100.00;95643.72;5068911;28;19932;-72
2023/06/19 03:39:52;;;;;;;;;;;;;;;19.51;100.00;95646.72;5071570;28;19948;-71
2023/06/19 03:42:18;;;;;;;;;;;;;;;19.58;100.00;95647.75;5070982;28;19928;-71
2023/06/19 03:44:44;;;;;;;;;;;;;;;19.54;100.00;95649.03;5070961;28;19935;-71
2023/06/19 03:47:11;;;;;;;;;;;;;;;19.33;100.00;95661.69;5069398;28;19933;-71
2023/06/19 03:49:37;;;;;;;;;;;;;;;19.28;100.00;95659.53;5063743;28;19943;-71
2023/06/19 03:52:03;;;;;;;;;;;;;;;19.32;100.00;95673.19;5060638;28;19979;-71
2023/06/19 03:54:30;;;;;;;;;;;;;;;19.29;100.00;95668.22;5062708;28;19928;-71
2023/06/19 03:56:57;;;;;;;;;;;;;;;19.30;100.00;95668.06;5070426;28;19936;-71
2023/06/19 03:59:23;;;;;;;;;;;;;;;19.15;100.00;95663.50;5067171;28;19924;-72
2023/06/19 04:01:50;;;;;;;;;;;;;;;19.07;100.00;95666.91;5066453;28;19928;-71
2023/06/19 04:04:16;;;;;;;;;;;;;;;19.03;100.00;95662.94;5066554;28;19979;-71
2023/06/19 04:06:42;;;;;;;;;;;;;;;19.02;100.00;95664.72;5065216;28;19924;-72
2023/06/19 04:09:09;;;;;;;;;;;;;;;18.94;100.00;95663.81;5068010;28;19936;-72
2023/06/19 04:11:35;;;;;;;;;;;;;;;19.12;100.00;95664.63;5067023;28;19948;-71
2023/06/19 04:14:02;;;;;;;;;;;;;;;19.02;100.00;95659.47;5069207;28;19924;-70
2023/06/19 04:16:29;;;;;;;;;;;;;;;18.92;100.00;95660.53;5064662;28;19928;-70
2023/06/19 04:18:55;;;;;;;;;;;;;;;18.95;100.00;95661.06;5065157;28;19924;-69
2023/06/19 04:21:21;;;;;;;;;;;;;;;19.03;100.00;95655.06;5060410;28;19929;-69
2023/06/19 04:23:47;;;;;;;;;;;;;;;19.12;100.00;95655.94;5059014;28;19932;-69
2023/06/19 04:26:14;;;;;;;;;;;;;;;19.07;100.00;95649.34;5059431;28;19978;-70
2023/06/19 04:28:41;;;;;;;;;;;;;;;19.13;100.00;95652.31;5065228;28;19974;-70
2023/06/19 04:31:09;;;;;;;;;;;;;;;18.96;100.00;95644.31;5069182;28;19924;-69
2023/06/19 04:33:35;;;;;;;;;;;;;;;19.10;100.00;95650.84;5070274;28;19925;-69
2023/06/19 04:36:01;;;;;;;;;;;;;;;19.13;100.00;95649.69;5064657;28;19925;-69
2023/06/19 04:38:28;;;;;;;;;;;;;;;19.02;100.00;95656.00;5061790;28;20499;-69
2023/06/19 04:40:54;;;;;;;;;;;;;;;19.11;100.00;95649.88;5067653;28;19929;-69
2023/06/19 04:43:21;;;;;;;;;;;;;;;19.20;100.00;95653.38;5063106;28;19925;-69
2023/06/19 04:45:47;;;;;;;;;;;;;;;19.21;100.00;95655.84;5061462;28;20402;-69
2023/06/19 04:48:15;;;;;;;;;;;;;;;19.07;100.00;95651.16;5064618;28;19933;-69
2023/06/19 04:50:41;;;;;;;;;;;;;;;19.26;100.00;95648.34;5070579;28;19929;-69
2023/06/19 04:53:07;;;;;;;;;;;;;;;19.24;100.00;95655.53;5063060;28;19932;-69
2023/06/19 04:55:33;;;;;;;;;;;;;;;19.29;100.00;95657.72;5066523;28;19931;-68
2023/06/19 04:58:00;;;;;;;;;;;;;;;19.35;100.00;95651.84;5070174;28;19958;-69
2023/06/19 05:00:26;;;;;;;;;;;;;;;19.44;100.00;95645.69;5062151;28;20342;-68
2023/06/19 05:02:52;;;;;;;;;;;;;;;19.42;100.00;95650.25;5062900;28;19936;-69
2023/06/19 05:05:20;;;;;;;;;;;;;;;19.41;100.00;95645.97;5064872;28;19994;-69
2023/06/19 05:07:46;;;;;;;;;;;;;;;19.34;100.00;95658.06;5072176;28;20358;-68
2023/06/19 05:10:12;;;;;;;;;;;;;;;19.34;100.00;95660.69;5072171;28;19986;-68
2023/06/19 05:12:39;;;;;;;;;;;;;;;19.40;100.00;95669.78;5067533;28;19939;-69
2023/06/19 05:15:05;;;;;;;;;;;;;;;19.46;100.00;95669.97;5074429;28;19978;-68
2023/06/19 05:17:32;;;;;;;;;;;;;;;19.56;100.00;95668.09;5072392;28;19929;-69
2023/06/19 05:19:58;;;;;;;;;;;;;;;19.74;100.00;95664.63;5060878;28;19928;-69
2023/06/19 05:22:26;;;;;;;;;;;;;;;19.80;100.00;95671.84;5071358;28;19928;-69
2023/06/19 05:24:52;;;;;;;;;;;;;;;19.72;100.00;95669.19;5069238;28;19932;-69
2023/06/19 05:27:19;;;;;;;;;;;;;;;19.83;100.00;95664.50;5073604;28;19937;-69
2023/06/19 05:29:45;;;;;;;;;;;;;;;19.77;100.00;95659.06;5073050;28;20007;-69
2023/06/19 05:32:11;;;;;;;;;;;;;;;19.74;100.00;95657.56;5062913;28;19924;-70
2023/06/19 05:34:38;;;;;;;;;;;;;;;19.80;100.00;95661.34;5073416;28;19978;-70
2023/06/19 05:37:04;;;;;;;;;;;;;;;19.80;100.00;95663.97;5068989;28;19935;-70
2023/06/19 05:39:32;;;;;;;;;;;;;;;19.83;100.00;95655.78;5070756;28;20328;-67
2023/06/19 05:41:58;;;;;;;;;;;;;;;19.91;100.00;95658.47;5067766;28;19932;-74
2023/06/19 05:44:24;;;;;;;;;;;;;;;19.87;100.00;95656.31;5071859;28;19933;-71
2023/06/19 05:46:50;;;;;;;;;;;;;;;19.93;100.00;95660.94;5071679;28;20015;-72
2023/06/19 05:49:17;;;;;;;;;;;;;;;19.86;100.00;95659.91;5071481;28;19928;-72
2023/06/19 05:51:43;;;;;;;;;;;;;;;19.96;100.00;95664.09;5065728;28;19929;-72
2023/06/19 05:54:09;;;;;;;;;;;;;;;20.00;100.00;95660.16;5065851;28;19936;-73
2023/06/19 05:56:37;;;;;;;;;;;;;;;20.01;100.00;95664.44;5072818;28;19924;-71
2023/06/19 05:59:03;;;;;;;;;;;;;;;19.99;100.00;95673.47;5070201;28;19986;-75
2023/06/19 06:01:30;;;;;;;;;;;;;;;19.99;100.00;95671.66;5072507;28;19932;-74
2023/06/19 06:03:56;;;;;;;;;;;;;;;20.00;100.00;95670.69;5061210;28;19962;-75
2023/06/19 06:06:23;;;;;;;;;;;;;;;20.09;100.00;95676.78;5065562;28;19924;-74
2023/06/19 06:08:51;;;;;;;;;;;;;;;20.09;100.00;95675.97;5076675;28;19932;-72
2023/06/19 06:11:17;;;;;;;;;;;;;;;20.13;100.00;95679.91;5067390;28;19924;-72
2023/06/19 06:13:44;;;;;;;;;;;;;;;20.16;100.00;95687.50;5067543;28;20333;-73
2023/06/19 06:16:11;;;;;;;;;;;;;;;19.99;100.00;95692.69;5079326;28;19924;-75
2023/06/19 06:18:37;;;;;;;;;;;;;;;19.91;100.00;95699.69;5066863;28;19924;-75
2023/06/19 06:21:04;;;;;;;;;;;;;;;20.12;100.00;95704.56;5068537;28;20310;-75
2023/06/19 06:23:30;;;;;;;;;;;;;;;20.15;100.00;95705.09;5070536;28;19924;-76
2023/06/19 06:26:02;;;;;;;;;;;;;;;20.14;100.00;95705.25;5075831;28;19924;-76
2023/06/19 06:28:28;;;;;;;;;;;;;;;20.19;100.00;95710.84;5078333;28;20007;-75
2023/06/19 06:30:56;;;;;;;;;;;;;;;20.37;100.00;95708.97;5081477;28;19928;-76
2023/06/19 06:33:22;;;;;;;;;;;;;;;20.35;100.00;95710.09;5068642;28;19925;-76
2023/06/19 06:35:48;;;;;;;;;;;;;;;20.42;100.00;95714.56;5071502;28;19925;-76
2023/06/19 06:38:14;;;;;;;;;;;;;;;20.49;100.00;95709.50;5080220;28;19932;-76
2023/06/19 06:40:41;;;;;;;;;;;;;;;20.49;100.00;95713.00;5070376;28;19924;-72
2023/06/19 06:43:07;;;;;;;;;;;;;;;20.48;100.00;95708.69;5079255;28;20325;-75
2023/06/19 06:45:34;;;;;;;;;;;;;;;20.59;100.00;95714.69;5069499;28;20296;-75
2023/06/19 06:48:01;;;;;;;;;;;;;;;20.88;100.00;95704.56;5071594;28;19928;-72
2023/06/19 06:50:27;;;;;;;;;;;;;;;20.85;100.00;95712.78;5073011;28;19928;-72
2023/06/19 06:52:54;;;;;;;;;;;;;;;20.97;100.00;95714.13;5063115;28;19963;-72
2023/06/19 06:55:20;;;;;;;;;;;;;;;21.07;100.00;95724.50;5064444;28;20334;-72
2023/06/19 06:57:46;;;;;;;;;;;;;;;21.03;100.00;95724.00;5072219;28;19925;-72
2023/06/19 07:00:13;;;;;;;;;;;;;;;20.95;100.00;95729.25;5070204;28;19970;-71
2023/06/19 07:02:40;;;;;;;;;;;;;;;21.11;100.00;95728.47;5067768;28;19932;-72
2023/06/19 07:05:09;;;;;;;;;;;;;;;21.18;100.00;95732.09;5066230;28;20007;-72
2023/06/19 07:07:35;;;;;;;;;;;;;;;21.17;100.00;95737.50;5065955;28;19925;-68
2023/06/19 07:10:02;;;;;;;;;;;;;;;21.27;100.00;95741.63;5071216;28;19993;-72
2023/06/19 07:12:28;;;;;;;;;;;;;;;21.29;100.00;95741.50;5071033;28;19924;-72
2023/06/19 07:14:55;;;;;;;;;;;;;;;21.39;100.00;95746.63;5067682;28;20349;-72
2023/06/19 07:17:21;;;;;;;;;;;;;;;21.55;100.00;95754.56;5057744;28;19925;-71
2023/06/19 07:19:47;;;;;;;;;;;;;;;21.58;100.00;95748.09;5051159;28;19925;-71
2023/06/19 07:22:15;;;;;;;;;;;;;;;21.69;100.00;95750.41;5050535;28;19955;-71
2023/06/19 07:24:42;;;;;;;;;;;;;;;21.77;100.00;95753.06;5043997;28;21164;-71
2023/06/19 07:27:08;;;;;;;;;;;;;;;22.12;100.00;95751.84;5047843;28;19979;-71
2023/06/19 07:29:34;;;;;;;;;;;;;;;22.33;100.00;95748.72;5049587;28;19990;-71
2023/06/19 07:32:02;;;;;;;;;;;;;;;22.42;100.00;95752.94;5050948;28;19925;-71
2023/06/19 07:34:28;;;;;;;;;;;;;;;22.63;100.00;95762.13;5044795;28;19925;-71
2023/06/19 07:36:55;;;;;;;;;;;;;;;22.91;100.00;95758.06;5049137;28;20415;-71
2023/06/19 07:39:22;;;;;;;;;;;;;;;23.20;96.81;95761.88;5046779;28;19928;-71
2023/06/19 07:41:49;;;;;;;;;;;;;;;23.43;94.26;95762.72;5045878;28;19960;-71
2023/06/19 07:44:17;;;;;;;;;;;;;;;23.73;91.65;95765.50;5045995;28;19971;-71
2023/06/19 07:46:44;;;;;;;;;;;;;;;24.11;91.09;95761.00;5046490;28;19928;-71
2023/06/19 07:49:10;;;;;;;;;;;;;;;24.50;84.83;95762.59;5050983;28;19936;-71
2023/06/19 07:51:36;;;;;;;;;;;;;;;24.67;83.54;95765.91;5051698;28;19979;-71
2023/06/19 07:54:02;;;;;;;;;;;;;;;24.74;81.62;95772.13;5038355;28;19955;-72
2023/06/19 07:56:30;;;;;;;;;;;;;;;24.69;83.28;95765.72;5046746;28;20440;-72
2023/06/19 07:58:56;;;;;;;;;;;;;;;24.95;82.78;95762.56;5037710;28;19971;-73
2023/06/19 08:01:23;;;;;;;;;;;;;;;25.12;78.77;95763.22;5047703;28;19925;-71
2023/06/19 08:03:49;;;;;;;;;;;;;;;25.19;76.71;95766.75;5047999;28;19932;-73
2023/06/19 08:06:15;;;;;;;;;;;;;;;25.54;74.34;95759.75;5049295;28;20387;-71
2023/06/19 08:08:41;;;;;;;;;;;;;;;25.65;73.52;95753.13;5050530;28;19929;-70
2023/06/19 08:11:08;;;;;;;;;;;;;;;25.80;74.19;95753.91;5047372;28;19925;-72
2023/06/19 08:13:35;;;;;;;;;;;;;;;25.89;72.06;95757.28;5050561;28;20303;-71
2023/06/19 08:16:01;;;;;;;;;;;;;;;25.89;69.91;95754.63;5040937;28;19929;-72
2023/06/19 08:18:28;;;;;;;;;;;;;;;26.01;70.95;95753.06;5048375;28;19931;-73
2023/06/19 08:20:54;;;;;;;;;;;;;;;25.61;71.48;95744.75;5045105;28;19928;-72
2023/06/19 08:23:20;;;;;;;;;;;;;;;25.97;73.33;95741.19;5049679;28;19929;-71
2023/06/19 08:25:46;;;;;;;;;;;;;;;26.03;69.09;95741.25;5051403;28;20325;-72
2023/06/19 08:28:13;;;;;;;;;;;;;;;26.62;69.74;95734.69;5045244;28;19932;-72
2023/06/19 08:30:40;;;;;;;;;;;;;;;27.13;66.73;95728.97;5043903;28;19929;-70
2023/06/19 08:33:07;;;;;;;;;;;;;;;27.24;64.14;95727.56;5049061;28;19925;-70
2023/06/19 08:35:33;;;;;;;;;;;;;;;27.21;62.57;95727.97;5042790;28;20213;-71
2023/06/19 08:37:59;;;;;;;;;;;;;;;26.98;55.04;95713.16;5041876;28;19928;-71
2023/06/19 08:40:25;;;;;;;;;;;;;;;27.16;53.23;95717.94;5042694;28;19932;-71
2023/06/19 08:42:53;;;;;;;;;;;;;;;27.10;52.36;95712.56;5041380;28;19959;-72
2023/06/19 08:45:20;;;;;;;;;;;;;;;26.87;52.52;95703.09;5040552;28;19929;-73
2023/06/19 08:47:49;;;;;;;;;;;;;;;27.09;51.67;95714.41;5047504;28;20011;-72
2023/06/19 08:50:15;;;;;;;;;;;;;;;27.37;53.13;95716.97;5043856;28;20013;-73
2023/06/19 08:52:41;;;;;;;;;;;;;;;27.47;50.68;95709.41;5049340;28;19929;-72
2023/06/19 08:55:08;;;;;;;;;;;;;;;27.38;51.04;95720.47;5048873;28;20425;-72
2023/06/19 08:57:35;;;;;;;;;;;;;;;27.61;54.97;95712.91;5049694;28;19928;-73
2023/06/19 09:00:02;;;;;;;;;;;;;;;26.51;62.33;95725.47;5050073;28;19929;-73
2023/06/19 09:02:37;;;;;;;;;;;;;;;26.49;58.46;95716.03;5050175;28;20027;-72
2023/06/19 09:05:11;;;;;;;;;;;;;;;25.99;64.20;95723.22;5044384;28;19933;-72
2023/06/19 09:07:37;;;;;;;;;;;;;;;25.85;66.04;95718.88;5042317;28;20275;-72
2023/06/19 09:10:11;;;;;;;;;;;;;;;25.86;62.72;95723.97;5049352;28;19929;-73
2023/06/19 09:12:38;;;;;;;;;;;;;;;26.46;62.45;95725.22;5049277;28;20271;-73
2023/06/19 09:15:12;;;;;;;;;;;;;;;26.38;61.08;95724.53;5050105;28;19933;-73
2023/06/19 09:17:38;;;;;;;;;;;;;;;26.64;59.76;95722.03;5045620;28;20314;-73
2023/06/19 09:20:05;;;;;;;;;;;;;;;26.72;58.42;95719.19;5048690;28;19951;-73
2023/06/19 09:22:33;;;;;;;;;;;;;;;26.98;56.33;95713.16;5049439;28;19925;-73
2023/06/19 09:25:01;;;;;;;;;;;;;;;26.99;54.74;95711.31;5048447;28;19956;-74
2023/06/19 09:27:32;;;;;;;;;;;;;;;27.08;56.86;95715.44;5044206;28;19928;-73
2023/06/19 09:29:58;;;;;;;;;;;;;;;26.77;53.23;95719.44;5047560;28;19932;-73
2023/06/19 09:32:26;;;;;;;;;;;;;;;26.82;53.17;95713.53;5044449;28;20366;-73
2023/06/19 09:34:53;;;;;;;;;;;;;;;26.33;53.48;95719.81;5049366;28;20436;-72
2023/06/19 09:37:22;;;;;;;;;;;;;;;26.63;53.41;95716.94;5039090;28;19935;-73
2023/06/19 09:39:52;;;;;;;;;;;;;;;26.73;55.38;95720.81;5048119;28;19932;-73
2023/06/19 09:42:20;;;;;;;;;;;;;;;26.84;63.70;95708.81;5049569;28;20387;-73
2023/06/19 09:44:49;;;;;;;;;;;;;;;26.16;63.28;95713.97;5046804;28;19929;-72
2023/06/19 09:47:20;;;;;;;;;;;;;;;25.88;62.20;95718.47;5044888;28;20025;-72
2023/06/19 09:49:49;;;;;;;;;;;;;;;25.77;61.98;95712.66;5043124;28;19925;-72
2023/06/19 09:52:15;;;;;;;;;;;;;;;25.92;61.74;95714.41;5047970;28;20028;-72
2023/06/19 09:54:43;;;;;;;;;;;;;;;25.96;64.43;95711.19;5048526;28;19925;-72
2023/06/19 09:57:11;;;;;;;;;;;;;;;26.35;61.64;95714.28;5047966;28;19941;-72
2023/06/19 09:59:38;;;;;;;;;;;;;;;26.28;61.01;95712.41;5051318;28;19925;-73
2023/06/19 10:02:06;;;;;;;;;;;;;;;26.18;61.76;95711.97;5046594;28;19978;-73
2023/06/19 10:04:44;;;;;;;;;;;;;;;26.48;60.97;95717.06;5047142;28;19929;-73
2023/06/19 10:07:16;;;;;;;;;;;;;;;26.61;59.03;95726.91;5052592;28;19935;-73
2023/06/19 10:09:42;;;;;;;;;;;;;;;26.74;57.26;95722.50;5053714;28;19940;-72
2023/06/19 10:12:13;;;;;;;;;;;;;;;27.32;58.76;95708.78;5052315;28;19975;-72
2023/06/19 10:14:45;;;;;;;;;;;;;;;27.72;55.76;95711.47;5052070;28;20284;-72
2023/06/19 10:17:12;;;;;;;;;;;;;;;27.48;55.82;95710.25;5048889;28;19932;-72
2023/06/19 10:19:38;;;;;;;;;;;;;;;27.55;58.89;95712.88;5051537;28;19932;-72
2023/06/19 10:22:04;;;;;;;;;;;;;;;27.67;56.34;95714.75;5051357;28;20399;-72
2023/06/19 10:24:31;;;;;;;;;;;;;;;26.92;55.95;95715.78;5053145;28;19932;-72
2023/06/19 10:26:58;;;;;;;;;;;;;;;26.63;55.85;95714.28;5052233;28;19932;-72
2023/06/19 10:29:27;;;;;;;;;;;;;;;26.78;56.68;95709.63;5048872;28;19975;-72
2023/06/19 10:31:53;;;;;;;;;;;;;;;26.95;56.00;95705.59;5048297;28;19933;-72
2023/06/19 10:34:19;;;;;;;;;;;;;;;27.18;55.13;95702.63;5047360;28;19935;-72
2023/06/19 10:36:46;;;;;;;;;;;;;;;27.18;54.72;95697.31;5050433;28;20343;-72
2023/06/19 10:39:12;;;;;;;;;;;;;;;27.33;54.84;95699.78;5047881;28;19929;-73
2023/06/19 10:41:40;;;;;;;;;;;;;;;27.80;57.48;95699.84;5049552;28;20004;-72
2023/06/19 10:44:12;;;;;;;;;;;;;;;27.80;54.17;95698.00;5051842;28;19925;-72
2023/06/19 10:46:40;;;;;;;;;;;;;;;28.20;53.61;95695.28;5044821;28;19925;-72
2023/06/19 10:49:07;;;;;;;;;;;;;;;28.03;52.69;95686.09;5046089;28;19956;-72
2023/06/19 10:51:34;;;;;;;;;;;;;;;28.33;52.04;95694.44;5044345;28;20415;-72
2023/06/19 10:54:01;;;;;;;;;;;;;;;27.98;52.33;95697.38;5039487;28;19968;-72
2023/06/19 10:56:27;;;;;;;;;;;;;;;28.36;54.34;95691.34;5047252;28;20341;-72
2023/06/19 10:59:00;;;;;;;;;;;;;;;28.48;53.37;95694.22;5044988;28;20525;-72
2023/06/19 11:01:37;;;;;;;;;;;;;;;28.32;53.50;95692.78;5047413;28;19927;-72
2023/06/19 11:04:06;;;;;;;;;;;;;;;28.08;54.66;95687.13;5039065;28;19929;-72
2023/06/19 11:06:32;;;;;;;;;;;;;;;27.65;51.78;95689.38;5049113;28;19928;-69
2023/06/19 11:09:00;;;;;;;;;;;;;;;27.68;52.52;95692.44;5048295;28;19986;-72
2023/06/19 11:11:35;;;;;;;;;;;;;;;27.40;51.69;95684.66;5046707;28;20302;-73
2023/06/19 11:14:01;;;;;;;;;;;;;;;27.53;53.90;95683.84;5049377;28;19932;-73
2023/06/19 11:16:28;;;;;;;;;;;;;;;27.81;53.62;95688.16;5052221;28;19928;-73
2023/06/19 11:18:56;;;;;;;;;;;;;;;27.85;53.83;95689.38;5050309;28;20016;-72
2023/06/19 11:21:30;;;;;;;;;;;;;;;27.98;51.94;95686.72;5046312;28;19935;-72
2023/06/19 11:23:58;;;;;;;;;;;;;;;27.78;51.07;95688.59;5049847;28;19925;-72
2023/06/19 11:26:25;;;;;;;;;;;;;;;27.87;50.14;95690.00;5045193;28;19929;-72
2023/06/19 11:28:51;;;;;;;;;;;;;;;28.02;50.77;95689.78;5045802;28;19928;-73
2023/06/19 11:31:18;;;;;;;;;;;;;;;27.90;50.46;95690.41;5049559;28;19925;-73
2023/06/19 11:33:45;;;;;;;;;;;;;;;27.77;53.27;95686.94;5041180;28;19933;-73
2023/06/19 11:36:11;;;;;;;;;;;;;;;27.50;53.92;95684.25;5045061;28;19933;-72
2023/06/19 11:38:40;;;;;;;;;;;;;;;27.82;54.20;95689.81;5043077;28;19935;-73
2023/06/19 11:41:07;;;;;;;;;;;;;;;27.99;56.91;95678.50;5048850;28;19924;-73
2023/06/19 11:43:35;;;;;;;;;;;;;;;28.01;58.36;95673.00;5043613;28;20310;-73
2023/06/19 11:46:02;;;;;;;;;;;;;;;28.23;56.54;95673.56;5047978;28;19971;-73
2023/06/19 11:48:29;;;;;;;;;;;;;;;28.43;51.79;95678.88;5043656;28;19979;-71
2023/06/19 11:50:55;;;;;;;;;;;;;;;28.48;52.94;95681.75;5040312;28;19974;-72
2023/06/19 11:53:22;;;;;;;;;;;;;;;28.53;54.48;95673.09;5045547;28;19925;-72
2023/06/19 11:55:49;;;;;;;;;;;;;;;28.72;56.31;95674.06;5041418;28;19925;-72
2023/06/19 11:58:16;;;;;;;;;;;;;;;28.49;54.55;95666.56;5045542;28;19940;-72
2023/06/19 12:00:42;;;;;;;;;;;;;;;28.73;55.09;95659.69;5039465;28;19929;-72
2023/06/19 12:03:09;;;;;;;;;;;;;;;28.89;55.32;95661.88;5048079;28;19935;-72
2023/06/19 12:05:35;;;;;;;;;;;;;;;28.62;55.08;95667.31;5046442;28;19929;-72
2023/06/19 12:08:02;;;;;;;;;;;;;;;28.43;56.49;95674.34;5051236;28;19929;-72
2023/06/19 12:10:28;;;;;;;;;;;;;;;27.95;57.24;95671.97;5040761;28;20565;-73
2023/06/19 12:12:56;;;;;;;;;;;;;;;27.88;55.92;95660.50;5045287;28;19929;-72
2023/06/19 12:15:23;;;;;;;;;;;;;;;27.68;53.60;95665.84;5049145;28;19925;-72
2023/06/19 12:17:49;;;;;;;;;;;;;;;27.62;58.00;95666.66;5047423;28;19933;-71
2023/06/19 12:20:15;;;;;;;;;;;;;;;27.79;58.42;95658.28;5045333;28;19928;-71
2023/06/19 12:22:42;;;;;;;;;;;;;;;27.93;57.29;95658.06;5048827;28;20429;-71
2023/06/19 12:25:09;;;;;;;;;;;;;;;27.73;55.30;95658.03;5048968;28;19924;-72
2023/06/19 12:27:35;;;;;;;;;;;;;;;27.89;56.75;95656.84;5047024;28;19979;-71
2023/06/19 12:30:03;;;;;;;;;;;;;;;27.85;55.64;95660.94;5044239;28;20035;-72
2023/06/19 12:32:29;;;;;;;;;;;;;;;27.90;59.57;95655.00;5050506;28;19929;-71
2023/06/19 12:34:55;;;;;;;;;;;;;;;27.77;59.92;95649.69;5042494;28;19940;-72
2023/06/19 12:37:22;;;;;;;;;;;;;;;27.42;60.07;95647.22;5048954;28;20341;-72
2023/06/19 12:39:48;;;;;;;;;;;;;;;27.41;61.90;95658.88;5045843;28;19935;-73
2023/06/19 12:42:14;;;;;;;;;;;;;;;27.51;59.08;95656.63;5050750;28;19956;-72